sensor_id;sensor_type;location;lat;lon;timestamp;P1;durP1;ratioP1;P2;durP2;ratioP2
4051;SDS011;2040;50.924;11.604;2023-06-14T00:01:01;9.67;;;2.70;;
4051;SDS011;2040;50.924;11.604;2023-06-14T00:03:31;2.80;;;2.37;;
4051;SDS011;2040;50.924;11.604;2023-06-14T00:05:57;3.83;;;2.90;;
4051;SDS011;2040;50.924;11.604;2023-06-14T00:08:22;4.90;;;3.47;;
4051;SDS011;2040;50.924;11.604;2023-06-14T00:10:49;5.13;;;3.33;;
4051;SDS011;2040;50.924;11.604;2023-06-14T00:13:15;3.80;;;2.57;;
4051;SDS011;2040;50.924;11.604;2023-06-14T00:15:41;6.27;;;3.10;;
4051;SDS011;2040;50.924;11.604;2023-06-14T00:18:07;15.63;;;3.83;;
4051;SDS011;2040;50.924;11.604;2023-06-14T00:20:34;5.17;;;3.13;;
4051;SDS011;2040;50.924;11.604;2023-06-14T00:23:01;8.10;;;3.10;;
4051;SDS011;2040;50.924;11.604;2023-06-14T00:25:27;6.30;;;3.50;;
4051;SDS011;2040;50.924;11.604;2023-06-14T00:27:53;4.50;;;2.93;;
4051;SDS011;2040;50.924;11.604;2023-06-14T00:30:19;5.20;;;3.60;;
4051;SDS011;2040;50.924;11.604;2023-06-14T00:32:45;4.97;;;3.37;;
4051;SDS011;2040;50.924;11.604;2023-06-14T00:35:12;7.37;;;3.30;;
4051;SDS011;2040;50.924;11.604;2023-06-14T00:37:37;6.73;;;3.00;;
4051;SDS011;2040;50.924;11.604;2023-06-14T00:40:03;5.17;;;3.10;;
4051;SDS011;2040;50.924;11.604;2023-06-14T00:42:30;3.37;;;2.77;;
4051;SDS011;2040;50.924;11.604;2023-06-14T00:44:55;5.17;;;3.10;;
4051;SDS011;2040;50.924;11.604;2023-06-14T00:47:21;5.13;;;3.30;;
4051;SDS011;2040;50.924;11.604;2023-06-14T00:49:48;4.97;;;3.67;;
4051;SDS011;2040;50.924;11.604;2023-06-14T00:52:16;5.43;;;3.10;;
4051;SDS011;2040;50.924;11.604;2023-06-14T00:54:42;4.97;;;3.20;;
4051;SDS011;2040;50.924;11.604;2023-06-14T00:57:09;4.90;;;3.37;;
4051;SDS011;2040;50.924;11.604;2023-06-14T00:59:45;5.47;;;3.70;;
4051;SDS011;2040;50.924;11.604;2023-06-14T01:02:12;5.60;;;3.50;;
4051;SDS011;2040;50.924;11.604;2023-06-14T01:04:42;18.23;;;3.43;;
4051;SDS011;2040;50.924;11.604;2023-06-14T01:12:47;5.13;;;2.90;;
4051;SDS011;2040;50.924;11.604;2023-06-14T01:15:24;5.20;;;3.20;;
4051;SDS011;2040;50.924;11.604;2023-06-14T01:17:51;4.10;;;2.87;;
4051;SDS011;2040;50.924;11.604;2023-06-14T01:20:22;3.63;;;2.37;;
4051;SDS011;2040;50.924;11.604;2023-06-14T01:22:50;5.10;;;3.23;;
4051;SDS011;2040;50.924;11.604;2023-06-14T01:25:17;5.20;;;3.50;;
4051;SDS011;2040;50.924;11.604;2023-06-14T01:27:46;4.17;;;3.17;;
4051;SDS011;2040;50.924;11.604;2023-06-14T01:30:14;4.70;;;3.00;;
4051;SDS011;2040;50.924;11.604;2023-06-14T01:32:41;20.03;;;3.30;;
4051;SDS011;2040;50.924;11.604;2023-06-14T01:35:06;5.07;;;2.90;;
4051;SDS011;2040;50.924;11.604;2023-06-14T01:37:32;4.90;;;3.20;;
4051;SDS011;2040;50.924;11.604;2023-06-14T01:39:58;4.50;;;3.10;;
4051;SDS011;2040;50.924;11.604;2023-06-14T01:42:24;4.40;;;3.10;;
4051;SDS011;2040;50.924;11.604;2023-06-14T01:44:50;6.10;;;3.13;;
4051;SDS011;2040;50.924;11.604;2023-06-14T01:47:18;4.43;;;3.23;;
4051;SDS011;2040;50.924;11.604;2023-06-14T01:49:45;11.53;;;3.73;;
4051;SDS011;2040;50.924;11.604;2023-06-14T01:52:11;5.63;;;3.33;;
4051;SDS011;2040;50.924;11.604;2023-06-14T01:54:37;4.20;;;3.07;;
4051;SDS011;2040;50.924;11.604;2023-06-14T01:57:07;7.77;;;3.33;;
4051;SDS011;2040;50.924;11.604;2023-06-14T01:59:33;4.50;;;3.23;;
4051;SDS011;2040;50.924;11.604;2023-06-14T02:02:00;7.07;;;3.83;;
4051;SDS011;2040;50.924;11.604;2023-06-14T02:04:27;6.73;;;3.90;;
4051;SDS011;2040;50.924;11.604;2023-06-14T02:06:53;8.80;;;3.43;;
4051;SDS011;2040;50.924;11.604;2023-06-14T02:09:18;6.27;;;3.13;;
4051;SDS011;2040;50.924;11.604;2023-06-14T02:11:44;6.33;;;3.50;;
4051;SDS011;2040;50.924;11.604;2023-06-14T02:14:10;4.90;;;3.50;;
4051;SDS011;2040;50.924;11.604;2023-06-14T02:16:36;3.77;;;2.60;;
4051;SDS011;2040;50.924;11.604;2023-06-14T02:19:03;6.37;;;3.53;;
4051;SDS011;2040;50.924;11.604;2023-06-14T02:21:29;4.10;;;2.93;;
4051;SDS011;2040;50.924;11.604;2023-06-14T02:23:55;5.10;;;3.20;;
4051;SDS011;2040;50.924;11.604;2023-06-14T02:26:21;6.20;;;3.20;;
4051;SDS011;2040;50.924;11.604;2023-06-14T02:28:47;3.40;;;2.93;;
4051;SDS011;2040;50.924;11.604;2023-06-14T02:31:13;3.83;;;2.43;;
4051;SDS011;2040;50.924;11.604;2023-06-14T02:33:39;4.50;;;3.07;;
4051;SDS011;2040;50.924;11.604;2023-06-14T02:36:05;3.80;;;3.03;;
4051;SDS011;2040;50.924;11.604;2023-06-14T02:38:31;3.47;;;2.83;;
4051;SDS011;2040;50.924;11.604;2023-06-14T02:40:57;3.80;;;2.73;;
4051;SDS011;2040;50.924;11.604;2023-06-14T02:43:24;5.83;;;2.60;;
4051;SDS011;2040;50.924;11.604;2023-06-14T02:45:49;4.87;;;2.63;;
4051;SDS011;2040;50.924;11.604;2023-06-14T02:48:15;4.73;;;2.80;;
4051;SDS011;2040;50.924;11.604;2023-06-14T02:50:41;9.53;;;3.37;;
4051;SDS011;2040;50.924;11.604;2023-06-14T02:53:07;3.40;;;2.60;;
4051;SDS011;2040;50.924;11.604;2023-06-14T02:55:33;3.43;;;2.87;;
4051;SDS011;2040;50.924;11.604;2023-06-14T02:57:58;5.20;;;2.77;;
4051;SDS011;2040;50.924;11.604;2023-06-14T03:00:24;4.63;;;3.07;;
4051;SDS011;2040;50.924;11.604;2023-06-14T03:02:49;4.97;;;3.30;;
4051;SDS011;2040;50.924;11.604;2023-06-14T03:05:16;4.20;;;3.40;;
4051;SDS011;2040;50.924;11.604;2023-06-14T03:07:46;5.03;;;2.93;;
4051;SDS011;2040;50.924;11.604;2023-06-14T03:10:12;5.43;;;3.10;;
4051;SDS011;2040;50.924;11.604;2023-06-14T03:12:38;4.20;;;2.40;;
4051;SDS011;2040;50.924;11.604;2023-06-14T03:15:04;7.53;;;3.10;;
4051;SDS011;2040;50.924;11.604;2023-06-14T03:17:30;3.57;;;2.43;;
4051;SDS011;2040;50.924;11.604;2023-06-14T03:19:58;9.53;;;2.67;;
4051;SDS011;2040;50.924;11.604;2023-06-14T03:22:25;3.77;;;2.43;;
4051;SDS011;2040;50.924;11.604;2023-06-14T03:24:51;3.63;;;2.70;;
4051;SDS011;2040;50.924;11.604;2023-06-14T03:27:20;3.40;;;2.70;;
4051;SDS011;2040;50.924;11.604;2023-06-14T03:29:45;4.43;;;3.20;;
4051;SDS011;2040;50.924;11.604;2023-06-14T03:32:11;3.73;;;2.93;;
4051;SDS011;2040;50.924;11.604;2023-06-14T03:34:37;4.10;;;2.33;;
4051;SDS011;2040;50.924;11.604;2023-06-14T03:37:04;3.47;;;2.40;;
4051;SDS011;2040;50.924;11.604;2023-06-14T03:39:29;3.70;;;2.00;;
4051;SDS011;2040;50.924;11.604;2023-06-14T03:41:55;2.40;;;2.20;;
4051;SDS011;2040;50.924;11.604;2023-06-14T03:44:21;3.20;;;2.70;;
4051;SDS011;2040;50.924;11.604;2023-06-14T03:46:46;3.83;;;2.30;;
4051;SDS011;2040;50.924;11.604;2023-06-14T03:49:12;3.23;;;2.13;;
4051;SDS011;2040;50.924;11.604;2023-06-14T03:51:38;3.90;;;2.40;;
4051;SDS011;2040;50.924;11.604;2023-06-14T03:54:04;4.10;;;2.67;;
4051;SDS011;2040;50.924;11.604;2023-06-14T03:56:31;3.03;;;2.40;;
4051;SDS011;2040;50.924;11.604;2023-06-14T03:58:56;3.50;;;2.40;;
4051;SDS011;2040;50.924;11.604;2023-06-14T04:01:22;3.50;;;2.03;;
4051;SDS011;2040;50.924;11.604;2023-06-14T04:03:52;5.00;;;2.50;;
4051;SDS011;2040;50.924;11.604;2023-06-14T04:06:18;3.97;;;2.40;;
4051;SDS011;2040;50.924;11.604;2023-06-14T04:08:44;5.07;;;2.87;;
4051;SDS011;2040;50.924;11.604;2023-06-14T04:11:10;5.30;;;2.60;;
4051;SDS011;2040;50.924;11.604;2023-06-14T04:13:36;4.77;;;2.27;;
4051;SDS011;2040;50.924;11.604;2023-06-14T04:16:02;2.97;;;2.30;;
4051;SDS011;2040;50.924;11.604;2023-06-14T04:18:28;3.10;;;2.60;;
4051;SDS011;2040;50.924;11.604;2023-06-14T04:20:54;3.90;;;2.07;;
4051;SDS011;2040;50.924;11.604;2023-06-14T04:23:21;4.70;;;2.53;;
4051;SDS011;2040;50.924;11.604;2023-06-14T04:25:47;2.90;;;2.43;;
4051;SDS011;2040;50.924;11.604;2023-06-14T04:28:14;3.23;;;2.20;;
4051;SDS011;2040;50.924;11.604;2023-06-14T04:30:44;7.07;;;3.07;;
4051;SDS011;2040;50.924;11.604;2023-06-14T04:33:12;5.60;;;2.27;;
4051;SDS011;2040;50.924;11.604;2023-06-14T04:35:38;4.70;;;2.90;;
4051;SDS011;2040;50.924;11.604;2023-06-14T04:38:05;4.03;;;2.70;;
4051;SDS011;2040;50.924;11.604;2023-06-14T04:40:34;3.23;;;2.57;;
4051;SDS011;2040;50.924;11.604;2023-06-14T04:43:01;4.20;;;2.80;;
4051;SDS011;2040;50.924;11.604;2023-06-14T04:45:30;5.43;;;2.77;;
4051;SDS011;2040;50.924;11.604;2023-06-14T04:47:58;3.20;;;2.40;;
4051;SDS011;2040;50.924;11.604;2023-06-14T04:50:24;2.30;;;2.10;;
4051;SDS011;2040;50.924;11.604;2023-06-14T04:52:49;5.80;;;2.80;;
4051;SDS011;2040;50.924;11.604;2023-06-14T04:55:16;4.30;;;2.63;;
4051;SDS011;2040;50.924;11.604;2023-06-14T04:57:44;5.57;;;2.83;;
4051;SDS011;2040;50.924;11.604;2023-06-14T05:00:10;5.57;;;2.57;;
4051;SDS011;2040;50.924;11.604;2023-06-14T05:02:37;3.50;;;2.50;;
4051;SDS011;2040;50.924;11.604;2023-06-14T05:05:03;3.33;;;2.50;;
4051;SDS011;2040;50.924;11.604;2023-06-14T05:07:29;3.43;;;2.60;;
4051;SDS011;2040;50.924;11.604;2023-06-14T05:09:55;4.37;;;3.00;;
4051;SDS011;2040;50.924;11.604;2023-06-14T05:12:20;3.83;;;2.63;;
4051;SDS011;2040;50.924;11.604;2023-06-14T05:14:46;8.90;;;3.30;;
4051;SDS011;2040;50.924;11.604;2023-06-14T05:17:12;4.03;;;2.40;;
4051;SDS011;2040;50.924;11.604;2023-06-14T05:19:37;4.17;;;2.40;;
4051;SDS011;2040;50.924;11.604;2023-06-14T05:22:03;4.53;;;3.13;;
4051;SDS011;2040;50.924;11.604;2023-06-14T05:24:29;3.40;;;2.37;;
4051;SDS011;2040;50.924;11.604;2023-06-14T05:26:55;3.10;;;2.60;;
4051;SDS011;2040;50.924;11.604;2023-06-14T05:29:21;7.63;;;2.70;;
4051;SDS011;2040;50.924;11.604;2023-06-14T05:31:47;5.77;;;3.10;;
4051;SDS011;2040;50.924;11.604;2023-06-14T05:34:12;5.67;;;3.27;;
4051;SDS011;2040;50.924;11.604;2023-06-14T05:36:38;4.20;;;2.70;;
4051;SDS011;2040;50.924;11.604;2023-06-14T05:39:04;2.70;;;2.23;;
4051;SDS011;2040;50.924;11.604;2023-06-14T05:41:30;5.63;;;3.23;;
4051;SDS011;2040;50.924;11.604;2023-06-14T05:43:56;6.53;;;2.47;;
4051;SDS011;2040;50.924;11.604;2023-06-14T05:46:22;4.97;;;3.07;;
4051;SDS011;2040;50.924;11.604;2023-06-14T05:48:53;3.77;;;2.90;;
4051;SDS011;2040;50.924;11.604;2023-06-14T05:51:19;3.70;;;2.80;;
4051;SDS011;2040;50.924;11.604;2023-06-14T05:53:50;3.67;;;2.90;;
4051;SDS011;2040;50.924;11.604;2023-06-14T05:56:15;4.60;;;2.93;;
4051;SDS011;2040;50.924;11.604;2023-06-14T05:58:42;4.30;;;2.70;;
4051;SDS011;2040;50.924;11.604;2023-06-14T06:01:08;4.90;;;3.03;;
4051;SDS011;2040;50.924;11.604;2023-06-14T06:03:34;5.80;;;5.20;;
4051;SDS011;2040;50.924;11.604;2023-06-14T06:06:00;4.80;;;3.17;;
4051;SDS011;2040;50.924;11.604;2023-06-14T06:08:26;4.27;;;2.60;;
4051;SDS011;2040;50.924;11.604;2023-06-14T06:10:52;5.50;;;2.60;;
4051;SDS011;2040;50.924;11.604;2023-06-14T06:13:18;6.17;;;2.80;;
4051;SDS011;2040;50.924;11.604;2023-06-14T06:15:44;7.10;;;3.53;;
4051;SDS011;2040;50.924;11.604;2023-06-14T06:18:10;6.67;;;3.20;;
4051;SDS011;2040;50.924;11.604;2023-06-14T06:20:36;6.50;;;2.83;;
4051;SDS011;2040;50.924;11.604;2023-06-14T06:23:02;8.13;;;3.60;;
4051;SDS011;2040;50.924;11.604;2023-06-14T06:25:27;5.93;;;3.03;;
4051;SDS011;2040;50.924;11.604;2023-06-14T06:27:53;6.73;;;3.27;;
4051;SDS011;2040;50.924;11.604;2023-06-14T06:30:21;5.97;;;3.40;;
4051;SDS011;2040;50.924;11.604;2023-06-14T06:32:46;4.77;;;3.20;;
4051;SDS011;2040;50.924;11.604;2023-06-14T06:35:12;7.20;;;3.17;;
4051;SDS011;2040;50.924;11.604;2023-06-14T06:37:38;6.80;;;3.20;;
4051;SDS011;2040;50.924;11.604;2023-06-14T06:40:04;6.10;;;3.80;;
4051;SDS011;2040;50.924;11.604;2023-06-14T06:42:31;6.73;;;3.60;;
4051;SDS011;2040;50.924;11.604;2023-06-14T06:44:57;3.90;;;2.90;;
4051;SDS011;2040;50.924;11.604;2023-06-14T06:47:22;5.60;;;3.20;;
4051;SDS011;2040;50.924;11.604;2023-06-14T06:49:48;6.67;;;3.73;;
4051;SDS011;2040;50.924;11.604;2023-06-14T06:52:14;4.23;;;3.20;;
4051;SDS011;2040;50.924;11.604;2023-06-14T06:54:40;6.23;;;3.47;;
4051;SDS011;2040;50.924;11.604;2023-06-14T06:57:05;6.37;;;3.00;;
4051;SDS011;2040;50.924;11.604;2023-06-14T06:59:31;7.70;;;4.30;;
4051;SDS011;2040;50.924;11.604;2023-06-14T07:01:58;4.07;;;3.37;;
4051;SDS011;2040;50.924;11.604;2023-06-14T07:04:23;6.97;;;3.30;;
4051;SDS011;2040;50.924;11.604;2023-06-14T07:06:49;4.53;;;3.80;;
4051;SDS011;2040;50.924;11.604;2023-06-14T07:09:14;5.80;;;3.40;;
4051;SDS011;2040;50.924;11.604;2023-06-14T07:11:41;4.10;;;3.20;;
4051;SDS011;2040;50.924;11.604;2023-06-14T07:14:08;7.00;;;3.37;;
4051;SDS011;2040;50.924;11.604;2023-06-14T07:16:34;4.40;;;3.47;;
4051;SDS011;2040;50.924;11.604;2023-06-14T07:19:01;5.93;;;3.93;;
4051;SDS011;2040;50.924;11.604;2023-06-14T07:21:27;5.00;;;3.60;;
4051;SDS011;2040;50.924;11.604;2023-06-14T07:23:53;6.57;;;3.20;;
4051;SDS011;2040;50.924;11.604;2023-06-14T07:26:19;5.60;;;3.70;;
4051;SDS011;2040;50.924;11.604;2023-06-14T07:28:45;5.23;;;3.10;;
4051;SDS011;2040;50.924;11.604;2023-06-14T07:31:12;6.00;;;3.00;;
4051;SDS011;2040;50.924;11.604;2023-06-14T07:33:39;4.63;;;3.60;;
4051;SDS011;2040;50.924;11.604;2023-06-14T07:36:05;4.43;;;3.60;;
4051;SDS011;2040;50.924;11.604;2023-06-14T07:38:31;19.87;;;5.03;;
4051;SDS011;2040;50.924;11.604;2023-06-14T07:40:56;7.13;;;3.83;;
4051;SDS011;2040;50.924;11.604;2023-06-14T07:43:22;5.70;;;3.23;;
4051;SDS011;2040;50.924;11.604;2023-06-14T07:45:47;6.80;;;3.00;;
4051;SDS011;2040;50.924;11.604;2023-06-14T07:48:13;5.03;;;3.53;;
4051;SDS011;2040;50.924;11.604;2023-06-14T07:50:38;4.30;;;3.30;;
4051;SDS011;2040;50.924;11.604;2023-06-14T07:53:04;5.20;;;3.60;;
4051;SDS011;2040;50.924;11.604;2023-06-14T07:55:29;6.90;;;3.20;;
4051;SDS011;2040;50.924;11.604;2023-06-14T07:57:57;7.87;;;3.70;;
4051;SDS011;2040;50.924;11.604;2023-06-14T08:00:23;5.10;;;3.57;;
4051;SDS011;2040;50.924;11.604;2023-06-14T08:02:49;9.47;;;3.47;;
4051;SDS011;2040;50.924;11.604;2023-06-14T08:05:17;7.40;;;3.37;;
4051;SDS011;2040;50.924;11.604;2023-06-14T08:07:42;6.37;;;3.50;;
4051;SDS011;2040;50.924;11.604;2023-06-14T08:10:08;6.27;;;3.60;;
4051;SDS011;2040;50.924;11.604;2023-06-14T08:12:34;11.60;;;3.90;;
4051;SDS011;2040;50.924;11.604;2023-06-14T08:14:59;5.10;;;3.47;;
4051;SDS011;2040;50.924;11.604;2023-06-14T08:17:25;4.33;;;3.40;;
4051;SDS011;2040;50.924;11.604;2023-06-14T08:19:52;7.70;;;3.20;;
4051;SDS011;2040;50.924;11.604;2023-06-14T08:22:22;4.10;;;3.23;;
4051;SDS011;2040;50.924;11.604;2023-06-14T08:24:49;4.33;;;3.40;;
4051;SDS011;2040;50.924;11.604;2023-06-14T08:27:15;6.63;;;3.40;;
4051;SDS011;2040;50.924;11.604;2023-06-14T08:29:40;11.43;;;3.77;;
4051;SDS011;2040;50.924;11.604;2023-06-14T08:32:06;6.20;;;3.60;;
4051;SDS011;2040;50.924;11.604;2023-06-14T08:34:34;4.07;;;2.77;;
4051;SDS011;2040;50.924;11.604;2023-06-14T08:37:15;5.83;;;3.80;;
4051;SDS011;2040;50.924;11.604;2023-06-14T08:39:41;4.03;;;3.10;;
4051;SDS011;2040;50.924;11.604;2023-06-14T08:42:07;4.40;;;3.10;;
4051;SDS011;2040;50.924;11.604;2023-06-14T08:44:35;10.40;;;3.10;;
4051;SDS011;2040;50.924;11.604;2023-06-14T08:47:01;8.17;;;3.50;;
4051;SDS011;2040;50.924;11.604;2023-06-14T08:49:29;4.80;;;3.37;;
4051;SDS011;2040;50.924;11.604;2023-06-14T08:52:00;4.20;;;3.03;;
4051;SDS011;2040;50.924;11.604;2023-06-14T08:54:29;3.60;;;2.90;;
4051;SDS011;2040;50.924;11.604;2023-06-14T08:56:56;4.10;;;2.73;;
4051;SDS011;2040;50.924;11.604;2023-06-14T08:59:31;6.50;;;3.43;;
4051;SDS011;2040;50.924;11.604;2023-06-14T09:02:04;5.07;;;2.80;;
4051;SDS011;2040;50.924;11.604;2023-06-14T09:04:30;8.13;;;3.23;;
4051;SDS011;2040;50.924;11.604;2023-06-14T09:06:57;4.53;;;3.30;;
4051;SDS011;2040;50.924;11.604;2023-06-14T09:09:23;4.80;;;2.37;;
4051;SDS011;2040;50.924;11.604;2023-06-14T09:11:50;5.13;;;2.53;;
4051;SDS011;2040;50.924;11.604;2023-06-14T09:14:18;2.87;;;2.53;;
4051;SDS011;2040;50.924;11.604;2023-06-14T09:16:44;7.17;;;2.70;;
4051;SDS011;2040;50.924;11.604;2023-06-14T09:19:13;4.20;;;3.03;;
4051;SDS011;2040;50.924;11.604;2023-06-14T09:21:47;3.93;;;2.97;;
4051;SDS011;2040;50.924;11.604;2023-06-14T09:24:13;3.97;;;3.10;;
4051;SDS011;2040;50.924;11.604;2023-06-14T09:26:39;4.40;;;2.93;;
4051;SDS011;2040;50.924;11.604;2023-06-14T09:29:05;7.47;;;2.50;;
4051;SDS011;2040;50.924;11.604;2023-06-14T09:31:31;6.20;;;2.80;;
4051;SDS011;2040;50.924;11.604;2023-06-14T09:33:58;3.47;;;2.50;;
4051;SDS011;2040;50.924;11.604;2023-06-14T09:36:26;4.70;;;2.87;;
4051;SDS011;2040;50.924;11.604;2023-06-14T09:38:56;7.30;;;3.00;;
4051;SDS011;2040;50.924;11.604;2023-06-14T09:44:06;13.77;;;2.60;;
4051;SDS011;2040;50.924;11.604;2023-06-14T09:46:33;13.37;;;3.13;;
4051;SDS011;2040;50.924;11.604;2023-06-14T09:49:00;2.90;;;2.50;;
4051;SDS011;2040;50.924;11.604;2023-06-14T09:51:27;3.60;;;2.90;;
4051;SDS011;2040;50.924;11.604;2023-06-14T09:53:55;5.43;;;2.83;;
4051;SDS011;2040;50.924;11.604;2023-06-14T09:56:28;3.90;;;2.60;;
4051;SDS011;2040;50.924;11.604;2023-06-14T09:58:55;6.60;;;2.50;;
4051;SDS011;2040;50.924;11.604;2023-06-14T10:01:22;4.13;;;2.30;;
4051;SDS011;2040;50.924;11.604;2023-06-14T10:03:50;2.80;;;2.20;;
4051;SDS011;2040;50.924;11.604;2023-06-14T10:06:19;4.40;;;2.30;;
4051;SDS011;2040;50.924;11.604;2023-06-14T10:08:49;3.40;;;2.23;;
4051;SDS011;2040;50.924;11.604;2023-06-14T10:11:17;3.90;;;2.57;;
4051;SDS011;2040;50.924;11.604;2023-06-14T10:13:43;5.67;;;3.07;;
4051;SDS011;2040;50.924;11.604;2023-06-14T10:18:45;3.60;;;2.60;;
4051;SDS011;2040;50.924;11.604;2023-06-14T10:23:46;7.73;;;2.97;;
4051;SDS011;2040;50.924;11.604;2023-06-14T10:26:23;3.77;;;2.90;;
4051;SDS011;2040;50.924;11.604;2023-06-14T10:29:07;5.70;;;2.77;;
4051;SDS011;2040;50.924;11.604;2023-06-14T10:31:47;3.80;;;1.97;;
4051;SDS011;2040;50.924;11.604;2023-06-14T10:34:23;3.50;;;2.53;;
4051;SDS011;2040;50.924;11.604;2023-06-14T10:37:06;5.83;;;2.53;;
4051;SDS011;2040;50.924;11.604;2023-06-14T10:39:43;3.60;;;2.47;;
4051;SDS011;2040;50.924;11.604;2023-06-14T10:42:11;4.03;;;2.87;;
4051;SDS011;2040;50.924;11.604;2023-06-14T10:47:06;4.00;;;2.27;;
4051;SDS011;2040;50.924;11.604;2023-06-14T10:52:15;3.27;;;2.30;;
4051;SDS011;2040;50.924;11.604;2023-06-14T10:57:26;5.00;;;2.70;;
4051;SDS011;2040;50.924;11.604;2023-06-14T10:59:52;4.10;;;2.07;;
4051;SDS011;2040;50.924;11.604;2023-06-14T11:04:52;3.33;;;2.70;;
4051;SDS011;2040;50.924;11.604;2023-06-14T11:13:04;4.03;;;2.50;;
4051;SDS011;2040;50.924;11.604;2023-06-14T11:15:34;2.80;;;2.40;;
4051;SDS011;2040;50.924;11.604;2023-06-14T11:18:01;5.00;;;2.47;;
4051;SDS011;2040;50.924;11.604;2023-06-14T11:20:29;5.83;;;2.50;;
4051;SDS011;2040;50.924;11.604;2023-06-14T11:23:00;13.13;;;3.00;;
4051;SDS011;2040;50.924;11.604;2023-06-14T11:25:26;2.77;;;2.57;;
4051;SDS011;2040;50.924;11.604;2023-06-14T11:27:55;6.33;;;2.90;;
4051;SDS011;2040;50.924;11.604;2023-06-14T11:30:30;2.80;;;2.37;;
4051;SDS011;2040;50.924;11.604;2023-06-14T11:33:00;6.60;;;3.07;;
4051;SDS011;2040;50.924;11.604;2023-06-14T11:35:26;6.27;;;3.70;;
4051;SDS011;2040;50.924;11.604;2023-06-14T11:37:55;2.90;;;2.47;;
4051;SDS011;2040;50.924;11.604;2023-06-14T11:40:25;10.90;;;2.40;;
4051;SDS011;2040;50.924;11.604;2023-06-14T11:42:59;2.87;;;2.57;;
4051;SDS011;2040;50.924;11.604;2023-06-14T11:45:25;3.03;;;2.10;;
4051;SDS011;2040;50.924;11.604;2023-06-14T11:47:51;7.93;;;2.63;;
4051;SDS011;2040;50.924;11.604;2023-06-14T11:50:21;5.63;;;2.53;;
4051;SDS011;2040;50.924;11.604;2023-06-14T11:52:53;2.40;;;2.20;;
4051;SDS011;2040;50.924;11.604;2023-06-14T11:55:21;4.37;;;2.83;;
4051;SDS011;2040;50.924;11.604;2023-06-14T11:57:47;6.63;;;3.10;;
4051;SDS011;2040;50.924;11.604;2023-06-14T12:00:13;2.20;;;2.00;;
4051;SDS011;2040;50.924;11.604;2023-06-14T12:02:40;14.33;;;1.87;;
4051;SDS011;2040;50.924;11.604;2023-06-14T12:05:06;4.60;;;2.57;;
4051;SDS011;2040;50.924;11.604;2023-06-14T12:07:35;3.07;;;2.73;;
4051;SDS011;2040;50.924;11.604;2023-06-14T12:12:31;2.90;;;2.60;;
4051;SDS011;2040;50.924;11.604;2023-06-14T12:15:02;4.13;;;3.10;;
4051;SDS011;2040;50.924;11.604;2023-06-14T12:17:31;6.60;;;3.07;;
4051;SDS011;2040;50.924;11.604;2023-06-14T12:19:58;5.40;;;2.97;;
4051;SDS011;2040;50.924;11.604;2023-06-14T12:22:23;6.37;;;2.67;;
4051;SDS011;2040;50.924;11.604;2023-06-14T12:24:49;7.13;;;2.80;;
4051;SDS011;2040;50.924;11.604;2023-06-14T12:27:15;4.40;;;2.47;;
4051;SDS011;2040;50.924;11.604;2023-06-14T12:29:43;13.93;;;2.83;;
4051;SDS011;2040;50.924;11.604;2023-06-14T12:32:09;4.70;;;2.20;;
4051;SDS011;2040;50.924;11.604;2023-06-14T12:34:35;22.03;;;2.30;;
4051;SDS011;2040;50.924;11.604;2023-06-14T12:37:00;3.90;;;2.40;;
4051;SDS011;2040;50.924;11.604;2023-06-14T12:39:26;6.90;;;2.50;;
4051;SDS011;2040;50.924;11.604;2023-06-14T12:41:52;5.53;;;2.40;;
4051;SDS011;2040;50.924;11.604;2023-06-14T12:44:19;3.57;;;2.83;;
4051;SDS011;2040;50.924;11.604;2023-06-14T12:46:45;5.97;;;2.47;;
4051;SDS011;2040;50.924;11.604;2023-06-14T12:49:10;8.70;;;2.97;;
4051;SDS011;2040;50.924;11.604;2023-06-14T12:51:37;12.80;;;3.33;;
4051;SDS011;2040;50.924;11.604;2023-06-14T12:54:04;19.57;;;2.70;;
4051;SDS011;2040;50.924;11.604;2023-06-14T12:56:30;4.70;;;2.53;;
4051;SDS011;2040;50.924;11.604;2023-06-14T12:58:58;3.20;;;2.47;;
4051;SDS011;2040;50.924;11.604;2023-06-14T13:01:27;3.13;;;2.60;;
4051;SDS011;2040;50.924;11.604;2023-06-14T13:03:52;2.93;;;2.30;;
4051;SDS011;2040;50.924;11.604;2023-06-14T13:06:22;3.80;;;2.67;;
4051;SDS011;2040;50.924;11.604;2023-06-14T13:08:47;3.07;;;2.20;;
4051;SDS011;2040;50.924;11.604;2023-06-14T13:11:13;9.43;;;2.30;;
4051;SDS011;2040;50.924;11.604;2023-06-14T13:13:39;2.23;;;2.03;;
4051;SDS011;2040;50.924;11.604;2023-06-14T13:16:05;5.50;;;2.60;;
4051;SDS011;2040;50.924;11.604;2023-06-14T13:18:30;2.30;;;2.10;;
4051;SDS011;2040;50.924;11.604;2023-06-14T13:20:56;5.10;;;2.70;;
4051;SDS011;2040;50.924;11.604;2023-06-14T13:23:21;4.23;;;2.50;;
4051;SDS011;2040;50.924;11.604;2023-06-14T13:25:47;2.90;;;1.90;;
4051;SDS011;2040;50.924;11.604;2023-06-14T13:28:14;2.63;;;2.03;;
4051;SDS011;2040;50.924;11.604;2023-06-14T13:30:40;3.07;;;2.33;;
4051;SDS011;2040;50.924;11.604;2023-06-14T13:33:05;7.57;;;2.43;;
4051;SDS011;2040;50.924;11.604;2023-06-14T13:35:31;3.70;;;2.00;;
4051;SDS011;2040;50.924;11.604;2023-06-14T13:37:57;2.70;;;2.23;;
4051;SDS011;2040;50.924;11.604;2023-06-14T13:40:22;3.53;;;2.40;;
4051;SDS011;2040;50.924;11.604;2023-06-14T13:42:48;3.00;;;1.90;;
4051;SDS011;2040;50.924;11.604;2023-06-14T13:45:14;2.23;;;2.03;;
4051;SDS011;2040;50.924;11.604;2023-06-14T13:47:41;2.70;;;1.80;;
4051;SDS011;2040;50.924;11.604;2023-06-14T13:50:07;4.80;;;1.90;;
4051;SDS011;2040;50.924;11.604;2023-06-14T13:52:33;3.70;;;2.17;;
4051;SDS011;2040;50.924;11.604;2023-06-14T13:55:00;3.00;;;2.00;;
4051;SDS011;2040;50.924;11.604;2023-06-14T13:57:25;2.90;;;1.80;;
4051;SDS011;2040;50.924;11.604;2023-06-14T13:59:54;3.30;;;1.60;;
4051;SDS011;2040;50.924;11.604;2023-06-14T14:02:25;3.07;;;1.63;;
4051;SDS011;2040;50.924;11.604;2023-06-14T14:04:54;2.87;;;1.90;;
4051;SDS011;2040;50.924;11.604;2023-06-14T14:07:21;2.80;;;1.77;;
4051;SDS011;2040;50.924;11.604;2023-06-14T14:09:47;2.27;;;1.90;;
4051;SDS011;2040;50.924;11.604;2023-06-14T14:12:13;12.37;;;2.10;;
4051;SDS011;2040;50.924;11.604;2023-06-14T14:14:39;5.07;;;2.20;;
4051;SDS011;2040;50.924;11.604;2023-06-14T14:17:05;5.03;;;1.93;;
4051;SDS011;2040;50.924;11.604;2023-06-14T14:19:31;5.23;;;1.50;;
4051;SDS011;2040;50.924;11.604;2023-06-14T14:21:57;3.03;;;1.43;;
4051;SDS011;2040;50.924;11.604;2023-06-14T14:24:23;5.00;;;1.87;;
4051;SDS011;2040;50.924;11.604;2023-06-14T14:26:49;2.50;;;1.90;;
4051;SDS011;2040;50.924;11.604;2023-06-14T14:29:18;5.23;;;1.80;;
4051;SDS011;2040;50.924;11.604;2023-06-14T14:31:47;4.70;;;1.90;;
4051;SDS011;2040;50.924;11.604;2023-06-14T14:34:13;2.33;;;1.83;;
4051;SDS011;2040;50.924;11.604;2023-06-14T14:36:38;4.17;;;1.60;;
4051;SDS011;2040;50.924;11.604;2023-06-14T14:39:07;3.40;;;1.83;;
4051;SDS011;2040;50.924;11.604;2023-06-14T14:41:33;3.37;;;1.93;;
4051;SDS011;2040;50.924;11.604;2023-06-14T14:43:59;1.67;;;1.57;;
4051;SDS011;2040;50.924;11.604;2023-06-14T14:46:25;6.50;;;2.13;;
4051;SDS011;2040;50.924;11.604;2023-06-14T14:48:52;3.93;;;1.90;;
4051;SDS011;2040;50.924;11.604;2023-06-14T14:51:18;3.80;;;1.67;;
4051;SDS011;2040;50.924;11.604;2023-06-14T14:53:44;4.23;;;2.13;;
4051;SDS011;2040;50.924;11.604;2023-06-14T14:56:09;3.00;;;2.03;;
4051;SDS011;2040;50.924;11.604;2023-06-14T14:58:37;3.13;;;2.30;;
4051;SDS011;2040;50.924;11.604;2023-06-14T15:01:03;1.80;;;1.50;;
4051;SDS011;2040;50.924;11.604;2023-06-14T15:03:30;3.57;;;1.90;;
4051;SDS011;2040;50.924;11.604;2023-06-14T15:05:56;2.10;;;1.83;;
4051;SDS011;2040;50.924;11.604;2023-06-14T15:08:21;1.77;;;1.67;;
4051;SDS011;2040;50.924;11.604;2023-06-14T15:10:47;2.17;;;1.97;;
4051;SDS011;2040;50.924;11.604;2023-06-14T15:13:13;2.00;;;1.43;;
4051;SDS011;2040;50.924;11.604;2023-06-14T15:15:39;1.57;;;1.40;;
4051;SDS011;2040;50.924;11.604;2023-06-14T15:18:07;2.33;;;1.73;;
4051;SDS011;2040;50.924;11.604;2023-06-14T15:20:34;4.47;;;2.03;;
4051;SDS011;2040;50.924;11.604;2023-06-14T15:23:00;2.40;;;1.27;;
4051;SDS011;2040;50.924;11.604;2023-06-14T15:25:29;3.30;;;1.73;;
4051;SDS011;2040;50.924;11.604;2023-06-14T15:27:57;1.53;;;1.43;;
4051;SDS011;2040;50.924;11.604;2023-06-14T15:30:22;3.03;;;1.93;;